sensor_id;sensor_type;location;lat;lon;timestamp;pressure;altitude;pressure_sealevel;temperature;humidity
47104;BME280;32853;52.164;5.400;2023-03-04T00:00:07;102621.78;;;7.82;100.00
47104;BME280;32853;52.164;5.400;2023-03-04T00:02:33;102530.63;;;7.12;100.00
47104;BME280;32853;52.164;5.400;2023-03-04T00:04:58;102625.25;;;7.67;100.00
47104;BME280;32853;52.164;5.400;2023-03-04T00:07:23;102567.94;;;7.40;100.00
47104;BME280;32853;52.164;5.400;2023-03-04T00:09:49;102600.91;;;7.62;100.00
47104;BME280;32853;52.164;5.400;2023-03-04T00:12:14;102621.75;;;7.73;100.00
47104;BME280;32853;52.164;5.400;2023-03-04T00:14:39;102604.41;;;7.69;100.00
47104;BME280;32853;52.164;5.400;2023-03-04T00:17:05;102636.50;;;7.63;100.00
47104;BME280;32853;52.164;5.400;2023-03-04T00:19:31;102593.06;;;7.30;100.00
47104;BME280;32853;52.164;5.400;2023-03-04T00:21:56;102605.25;;;7.48;100.00
47104;BME280;32853;52.164;5.400;2023-03-04T00:24:21;102575.75;;;7.40;100.00
47104;BME280;32853;52.164;5.400;2023-03-04T00:26:50;102635.66;;;7.60;100.00
47104;BME280;32853;52.164;5.400;2023-03-04T00:29:15;102613.91;;;7.21;100.00
47104;BME280;32853;52.164;5.400;2023-03-04T00:31:40;102611.31;;;7.41;100.00
47104;BME280;32853;52.164;5.400;2023-03-04T00:34:05;102625.22;;;7.47;100.00
47104;BME280;32853;52.164;5.400;2023-03-04T00:36:31;102615.63;;;7.25;100.00
47104;BME280;32853;52.164;5.400;2023-03-04T00:38:56;102613.03;;;7.26;100.00
47104;BME280;32853;52.164;5.400;2023-03-04T00:41:21;102627.84;;;7.58;100.00
47104;BME280;32853;52.164;5.400;2023-03-04T00:43:47;102562.69;;;7.14;100.00
47104;BME280;32853;52.164;5.400;2023-03-04T00:46:12;102603.53;;;7.68;100.00
47104;BME280;32853;52.164;5.400;2023-03-04T00:48:37;102563.59;;;7.52;100.00
47104;BME280;32853;52.164;5.400;2023-03-04T00:51:03;102625.25;;;7.82;100.00
47104;BME280;32853;52.164;5.400;2023-03-04T00:53:29;102613.09;;;7.78;100.00
47104;BME280;32853;52.164;5.400;2023-03-04T00:55:54;102622.63;;;7.63;100.00
47104;BME280;32853;52.164;5.400;2023-03-04T00:58:19;102626.97;;;7.85;100.00
47104;BME280;32853;52.164;5.400;2023-03-04T01:00:45;102580.00;;;7.03;100.00
47104;BME280;32853;52.164;5.400;2023-03-04T01:03:10;102606.13;;;7.44;100.00
47104;BME280;32853;52.164;5.400;2023-03-04T01:05:35;102626.97;;;7.67;100.00
47104;BME280;32853;52.164;5.400;2023-03-04T01:08:01;102607.84;;;7.51;100.00
47104;BME280;32853;52.164;5.400;2023-03-04T01:10:27;102608.75;;;7.59;100.00
47104;BME280;32853;52.164;5.400;2023-03-04T01:12:52;102621.75;;;7.71;100.00
47104;BME280;32853;52.164;5.400;2023-03-04T01:15:17;102617.41;;;7.63;100.00
47104;BME280;32853;52.164;5.400;2023-03-04T01:17:43;102619.16;;;7.64;100.00
47104;BME280;32853;52.164;5.400;2023-03-04T01:20:09;102552.31;;;7.23;100.00
47104;BME280;32853;52.164;5.400;2023-03-04T01:22:35;102616.56;;;7.54;100.00
47104;BME280;32853;52.164;5.400;2023-03-04T01:25:04;102613.09;;;7.68;100.00
47104;BME280;32853;52.164;5.400;2023-03-04T01:27:33;102569.66;;;7.21;100.00
47104;BME280;32853;52.164;5.400;2023-03-04T01:29:58;102620.91;;;7.71;100.00
47104;BME280;32853;52.164;5.400;2023-03-04T01:32:23;102615.69;;;7.75;100.00
47104;BME280;32853;52.164;5.400;2023-03-04T01:34:49;102607.03;;;7.87;100.00
47104;BME280;32853;52.164;5.400;2023-03-04T01:37:14;102606.13;;;7.83;100.00
47104;BME280;32853;52.164;5.400;2023-03-04T01:39:39;102577.50;;;7.54;100.00
47104;BME280;32853;52.164;5.400;2023-03-04T01:42:05;102610.47;;;7.46;100.00
47104;BME280;32853;52.164;5.400;2023-03-04T01:44:31;102542.66;;;6.87;100.00
47104;BME280;32853;52.164;5.400;2023-03-04T01:46:56;102587.88;;;7.41;100.00
47104;BME280;32853;52.164;5.400;2023-03-04T01:49:22;102597.47;;;7.71;100.00
47104;BME280;32853;52.164;5.400;2023-03-04T01:51:52;102573.16;;;7.50;100.00
47104;BME280;32853;52.164;5.400;2023-03-04T01:54:19;102582.69;;;7.35;100.00
47104;BME280;32853;52.164;5.400;2023-03-04T01:56:46;102535.75;;;6.98;100.00
47104;BME280;32853;52.164;5.400;2023-03-04T01:59:13;102574.00;;;7.42;100.00
47104;BME280;32853;52.164;5.400;2023-03-04T02:01:52;102534.03;;;6.89;100.00
47104;BME280;32853;52.164;5.400;2023-03-04T02:04:20;102441.22;;;6.59;100.00
47104;BME280;32853;52.164;5.400;2023-03-04T02:06:50;102469.03;;;7.00;100.00
47104;BME280;32853;52.164;5.400;2023-03-04T02:09:18;102494.16;;;7.04;100.00
47104;BME280;32853;52.164;5.400;2023-03-04T02:11:45;102578.38;;;7.56;100.00
47104;BME280;32853;52.164;5.400;2023-03-04T02:14:12;102581.81;;;7.63;100.00
47104;BME280;32853;52.164;5.400;2023-03-04T02:16:38;102488.97;;;7.12;100.00
47104;BME280;32853;52.164;5.400;2023-03-04T02:19:38;102423.00;;;6.52;100.00
47104;BME280;32853;52.164;5.400;2023-03-04T02:21:59;102558.41;;;7.46;100.00
47104;BME280;32853;52.164;5.400;2023-03-04T02:27:04;102558.38;;;7.37;100.00
47104;BME280;32853;52.164;5.400;2023-03-04T02:29:30;102461.97;;;6.52;100.00
47104;BME280;32853;52.164;5.400;2023-03-04T02:31:55;102557.50;;;7.14;100.00
47104;BME280;32853;52.164;5.400;2023-03-04T02:34:23;102482.88;;;6.81;100.00
47104;BME280;32853;52.164;5.400;2023-03-04T02:36:51;102531.44;;;7.06;100.00
47104;BME280;32853;52.164;5.400;2023-03-04T02:41:50;102370.09;;;6.25;100.00
47104;BME280;32853;52.164;5.400;2023-03-04T02:44:18;102501.97;;;7.15;100.00
47104;BME280;32853;52.164;5.400;2023-03-04T02:46:45;102536.69;;;7.29;100.00
47104;BME280;32853;52.164;5.400;2023-03-04T02:49:11;102489.84;;;7.18;100.00
47104;BME280;32853;52.164;5.400;2023-03-04T02:51:37;102535.84;;;7.33;100.00
47104;BME280;32853;52.164;5.400;2023-03-04T02:54:02;102521.94;;;7.16;100.00
47104;BME280;32853;52.164;5.400;2023-03-04T02:56:28;102521.94;;;7.16;100.00
47104;BME280;32853;52.164;5.400;2023-03-04T02:58:55;102543.66;;;7.54;100.00
47104;BME280;32853;52.164;5.400;2023-03-04T03:01:21;102488.13;;;7.14;100.00
47104;BME280;32853;52.164;5.400;2023-03-04T03:03:46;102526.28;;;7.56;100.00
47104;BME280;32853;52.164;5.400;2023-03-04T03:06:11;102528.00;;;7.42;100.00
47104;BME280;32853;52.164;5.400;2023-03-04T03:08:41;102525.41;;;7.48;100.00
47104;BME280;32853;52.164;5.400;2023-03-04T03:11:08;102388.38;;;6.83;100.00
47104;BME280;32853;52.164;5.400;2023-03-04T03:13:33;102470.75;;;7.50;100.00
47104;BME280;32853;52.164;5.400;2023-03-04T03:15:59;102456.00;;;7.18;100.00
47104;BME280;32853;52.164;5.400;2023-03-04T03:18:27;102463.84;;;7.43;100.00
47104;BME280;32853;52.164;5.400;2023-03-04T03:20:53;102507.19;;;7.70;100.00
47104;BME280;32853;52.164;5.400;2023-03-04T03:23:19;102511.53;;;7.58;100.00
47104;BME280;32853;52.164;5.400;2023-03-04T03:25:45;102495.91;;;7.52;100.00
47104;BME280;32853;52.164;5.400;2023-03-04T03:28:10;102444.72;;;7.19;100.00
47104;BME280;32853;52.164;5.400;2023-03-04T03:30:36;102468.16;;;7.18;100.00
47104;BME280;32853;52.164;5.400;2023-03-04T03:33:02;102485.50;;;7.16;100.00
47104;BME280;32853;52.164;5.400;2023-03-04T03:35:27;102488.13;;;7.36;100.00
47104;BME280;32853;52.164;5.400;2023-03-04T03:37:52;102461.22;;;7.24;100.00
47104;BME280;32853;52.164;5.400;2023-03-04T03:40:18;102498.50;;;7.63;100.00
47104;BME280;32853;52.164;5.400;2023-03-04T03:42:43;102485.53;;;7.34;100.00
47104;BME280;32853;52.164;5.400;2023-03-04T03:45:09;102469.03;;;7.40;100.00
47104;BME280;32853;52.164;5.400;2023-03-04T03:47:38;102497.63;;;7.61;100.00
47104;BME280;32853;52.164;5.400;2023-03-04T03:50:04;102508.06;;;7.66;100.00
47104;BME280;32853;52.164;5.400;2023-03-04T03:52:30;102443.88;;;7.45;100.00
47104;BME280;32853;52.164;5.400;2023-03-04T03:54:56;102414.41;;;6.91;100.00
47104;BME280;32853;52.164;5.400;2023-03-04T03:57:22;102507.19;;;7.30;100.00
47104;BME280;32853;52.164;5.400;2023-03-04T03:59:47;102505.47;;;7.58;100.00
47104;BME280;32853;52.164;5.400;2023-03-04T04:02:13;102513.28;;;7.37;100.00
47104;BME280;32853;52.164;5.400;2023-03-04T04:04:38;102449.94;;;7.24;100.00
47104;BME280;32853;52.164;5.400;2023-03-04T04:07:03;102517.63;;;7.33;100.00
47104;BME280;32853;52.164;5.400;2023-03-04T04:09:29;102495.06;;;7.56;100.00
47104;BME280;32853;52.164;5.400;2023-03-04T04:11:55;102423.06;;;7.16;100.00
47104;BME280;32853;52.164;5.400;2023-03-04T04:14:20;102456.03;;;7.35;100.00
47104;BME280;32853;52.164;5.400;2023-03-04T04:16:45;102482.03;;;7.38;100.00
47104;BME280;32853;52.164;5.400;2023-03-04T04:19:19;102492.47;;;7.46;100.00
47104;BME280;32853;52.164;5.400;2023-03-04T04:21:45;102464.69;;;7.26;100.00
47104;BME280;32853;52.164;5.400;2023-03-04T04:24:10;102511.53;;;7.78;100.00
47104;BME280;32853;52.164;5.400;2023-03-04T04:26:36;102462.94;;;7.47;100.00
47104;BME280;32853;52.164;5.400;2023-03-04T04:29:01;102499.38;;;7.61;100.00
47104;BME280;32853;52.164;5.400;2023-03-04T04:31:26;102515.88;;;7.50;100.00
47104;BME280;32853;52.164;5.400;2023-03-04T04:33:52;102501.97;;;7.30;100.00
47104;BME280;32853;52.164;5.400;2023-03-04T04:36:17;102498.53;;;7.45;100.00
47104;BME280;32853;52.164;5.400;2023-03-04T04:38:42;102520.19;;;7.19;100.00
47104;BME280;32853;52.164;5.400;2023-03-04T04:41:20;102503.69;;;7.07;100.00
47104;BME280;32853;52.164;5.400;2023-03-04T04:43:46;102515.00;;;7.15;100.00
47104;BME280;32853;52.164;5.400;2023-03-04T04:46:11;102509.81;;;7.54;100.00
47104;BME280;32853;52.164;5.400;2023-03-04T04:48:37;102503.72;;;7.60;100.00
47104;BME280;32853;52.164;5.400;2023-03-04T04:51:03;102481.16;;;7.41;100.00
47104;BME280;32853;52.164;5.400;2023-03-04T04:53:28;102515.00;;;7.41;100.00
47104;BME280;32853;52.164;5.400;2023-03-04T04:55:54;102515.03;;;7.33;100.00
47104;BME280;32853;52.164;5.400;2023-03-04T04:58:19;102519.38;;;7.54;100.00
47104;BME280;32853;52.164;5.400;2023-03-04T05:00:45;102494.16;;;7.53;100.00
47104;BME280;32853;52.164;5.400;2023-03-04T05:03:10;102499.38;;;7.57;100.00
47104;BME280;32853;52.164;5.400;2023-03-04T05:05:35;102515.84;;;7.73;100.00
47104;BME280;32853;52.164;5.400;2023-03-04T05:08:01;102469.91;;;7.33;100.00
47104;BME280;32853;52.164;5.400;2023-03-04T05:10:26;102507.19;;;7.59;100.00
47104;BME280;32853;52.164;5.400;2023-03-04T05:12:51;102488.94;;;7.64;100.00
47104;BME280;32853;52.164;5.400;2023-03-04T05:15:17;102486.38;;;7.51;100.00
47104;BME280;32853;52.164;5.400;2023-03-04T05:17:42;102482.03;;;7.41;100.00
47104;BME280;32853;52.164;5.400;2023-03-04T05:20:15;102508.06;;;7.63;100.00
47104;BME280;32853;52.164;5.400;2023-03-04T05:22:40;102520.19;;;7.80;100.00
47104;BME280;32853;52.164;5.400;2023-03-04T05:25:30;102509.75;;;7.94;100.00
47104;BME280;32853;52.164;5.400;2023-03-04T05:28:04;102502.84;;;7.76;100.00
47104;BME280;32853;52.164;5.400;2023-03-04T05:30:31;102506.31;;;7.71;100.00
47104;BME280;32853;52.164;5.400;2023-03-04T05:32:56;102508.00;;;7.95;100.00
47104;BME280;32853;52.164;5.400;2023-03-04T05:35:22;102522.75;;;7.96;100.00
47104;BME280;32853;52.164;5.400;2023-03-04T05:37:47;102484.63;;;7.69;100.00
47104;BME280;32853;52.164;5.400;2023-03-04T05:40:12;102518.44;;;7.89;100.00
47104;BME280;32853;52.164;5.400;2023-03-04T05:42:38;102486.34;;;7.73;100.00
47104;BME280;32853;52.164;5.400;2023-03-04T05:45:03;102497.59;;;7.84;100.00
47104;BME280;32853;52.164;5.400;2023-03-04T05:47:33;102508.03;;;7.82;100.00
47104;BME280;32853;52.164;5.400;2023-03-04T05:49:59;102509.75;;;7.90;100.00
47104;BME280;32853;52.164;5.400;2023-03-04T05:52:24;102525.41;;;7.90;100.00
47104;BME280;32853;52.164;5.400;2023-03-04T05:54:50;102514.13;;;7.88;100.00
47104;BME280;32853;52.164;5.400;2023-03-04T05:57:15;102495.88;;;7.81;100.00
47104;BME280;32853;52.164;5.400;2023-03-04T05:59:40;102492.44;;;7.78;100.00
47104;BME280;32853;52.164;5.400;2023-03-04T06:02:06;102453.41;;;7.49;100.00
47104;BME280;32853;52.164;5.400;2023-03-04T06:04:31;102512.38;;;7.83;100.00
47104;BME280;32853;52.164;5.400;2023-03-04T06:06:56;102482.00;;;7.69;100.00
47104;BME280;32853;52.164;5.400;2023-03-04T06:09:22;102514.97;;;7.90;100.00
47104;BME280;32853;52.164;5.400;2023-03-04T06:11:47;102511.47;;;7.94;100.00
47104;BME280;32853;52.164;5.400;2023-03-04T06:14:12;102517.56;;;7.86;100.00
47104;BME280;32853;52.164;5.400;2023-03-04T06:16:38;102443.03;;;7.32;100.00
47104;BME280;32853;52.164;5.400;2023-03-04T06:19:04;102486.38;;;7.65;100.00
47104;BME280;32853;52.164;5.400;2023-03-04T06:21:29;102507.16;;;7.74;100.00
47104;BME280;32853;52.164;5.400;2023-03-04T06:23:54;102509.75;;;7.76;100.00
47104;BME280;32853;52.164;5.400;2023-03-04T06:26:20;102465.53;;;7.50;100.00
47104;BME280;32853;52.164;5.400;2023-03-04T06:28:45;102499.38;;;7.59;100.00
47104;BME280;32853;52.164;5.400;2023-03-04T06:31:11;102510.66;;;7.73;100.00
47104;BME280;32853;52.164;5.400;2023-03-04T06:33:36;102511.53;;;7.77;100.00
47104;BME280;32853;52.164;5.400;2023-03-04T06:36:02;102506.28;;;7.83;100.00
47104;BME280;32853;52.164;5.400;2023-03-04T06:38:27;102517.59;;;7.80;100.00
47104;BME280;32853;52.164;5.400;2023-03-04T06:40:53;102522.78;;;7.86;100.00
47104;BME280;32853;52.164;5.400;2023-03-04T06:43:19;102505.41;;;7.85;100.00
47104;BME280;32853;52.164;5.400;2023-03-04T06:45:44;102493.31;;;7.69;100.00
47104;BME280;32853;52.164;5.400;2023-03-04T06:48:10;102453.41;;;7.50;100.00
47104;BME280;32853;52.164;5.400;2023-03-04T06:50:35;102508.91;;;7.65;100.00
47104;BME280;32853;52.164;5.400;2023-03-04T06:53:00;102515.84;;;7.64;100.00
47104;BME280;32853;52.164;5.400;2023-03-04T06:55:26;102462.97;;;7.24;100.00
47104;BME280;32853;52.164;5.400;2023-03-04T06:57:51;102512.41;;;7.56;100.00
47104;BME280;32853;52.164;5.400;2023-03-04T07:00:17;102531.50;;;7.76;100.00
47104;BME280;32853;52.164;5.400;2023-03-04T07:02:43;102516.72;;;7.71;100.00
47104;BME280;32853;52.164;5.400;2023-03-04T07:05:10;102538.44;;;7.71;100.00
47104;BME280;32853;52.164;5.400;2023-03-04T07:07:36;102493.28;;;7.63;100.00
47104;BME280;32853;52.164;5.400;2023-03-04T07:10:02;102535.84;;;7.77;100.00
47104;BME280;32853;52.164;5.400;2023-03-04T07:12:27;102483.78;;;7.38;100.00
47104;BME280;32853;52.164;5.400;2023-03-04T07:14:53;102468.16;;;7.27;100.00
47104;BME280;32853;52.164;5.400;2023-03-04T07:17:20;102486.38;;;7.57;100.00
47104;BME280;32853;52.164;5.400;2023-03-04T07:19:45;102372.78;;;6.80;100.00
47104;BME280;32853;52.164;5.400;2023-03-04T07:22:20;102300.84;;;6.44;100.00
47104;BME280;32853;52.164;5.400;2023-03-04T07:24:45;102515.88;;;7.61;100.00
47104;BME280;32853;52.164;5.400;2023-03-04T07:27:14;102543.63;;;7.90;100.00
47104;BME280;32853;52.164;5.400;2023-03-04T07:29:39;102475.97;;;7.47;100.00
47104;BME280;32853;52.164;5.400;2023-03-04T07:32:08;102540.16;;;7.89;100.00
47104;BME280;32853;52.164;5.400;2023-03-04T07:34:36;102547.97;;;7.98;100.00
47104;BME280;32853;52.164;5.400;2023-03-04T07:37:02;102545.34;;;8.01;100.00
47104;BME280;32853;52.164;5.400;2023-03-04T07:39:35;102523.63;;;7.98;100.00
47104;BME280;32853;52.164;5.400;2023-03-04T07:42:01;102534.03;;;8.08;100.00
47104;BME280;32853;52.164;5.400;2023-03-04T07:44:28;102510.59;;;7.95;100.00
47104;BME280;32853;52.164;5.400;2023-03-04T07:46:55;102461.19;;;7.58;100.00
47104;BME280;32853;52.164;5.400;2023-03-04T07:49:20;102337.25;;;6.91;100.00
47104;BME280;32853;52.164;5.400;2023-03-04T07:51:45;102476.81;;;7.78;100.00
47104;BME280;32853;52.164;5.400;2023-03-04T07:54:17;102550.53;;;8.21;100.00
47104;BME280;32853;52.164;5.400;2023-03-04T07:56:45;102539.22;;;8.18;100.00
47104;BME280;32853;52.164;5.400;2023-03-04T07:59:10;102429.13;;;7.39;100.00
47104;BME280;32853;52.164;5.400;2023-03-04T08:01:37;102449.91;;;7.70;100.00
47104;BME280;32853;52.164;5.400;2023-03-04T08:04:04;102460.25;;;7.91;100.00
47104;BME280;32853;52.164;5.400;2023-03-04T08:06:34;102503.59;;;8.18;100.00
47104;BME280;32853;52.164;5.400;2023-03-04T08:09:05;102482.78;;;8.12;100.00
47104;BME280;32853;52.164;5.400;2023-03-04T08:11:37;102477.69;;;7.60;100.00
47104;BME280;32853;52.164;5.400;2023-03-04T08:14:03;102563.47;;;8.50;100.00
47104;BME280;32853;52.164;5.400;2023-03-04T08:16:33;102570.47;;;8.43;100.00
47104;BME280;32853;52.164;5.400;2023-03-04T08:19:02;102562.66;;;8.36;100.00
47104;BME280;32853;52.164;5.400;2023-03-04T08:21:33;102516.63;;;8.20;100.00
47104;BME280;32853;52.164;5.400;2023-03-04T08:24:00;102563.53;;;8.26;100.00
47104;BME280;32853;52.164;5.400;2023-03-04T08:26:34;102556.63;;;8.11;100.00
47104;BME280;32853;52.164;5.400;2023-03-04T08:29:03;102577.41;;;8.34;100.00
47104;BME280;32853;52.164;5.400;2023-03-04T08:31:30;102469.78;;;8.00;100.00
47104;BME280;32853;52.164;5.400;2023-03-04T08:33:58;102576.47;;;8.62;100.00
47104;BME280;32853;52.164;5.400;2023-03-04T08:36:23;102431.59;;;7.86;100.00
47104;BME280;32853;52.164;5.400;2023-03-04T08:38:49;102564.28;;;8.67;100.00
47104;BME280;32853;52.164;5.400;2023-03-04T08:41:15;102570.28;;;8.85;100.00
47104;BME280;32853;52.164;5.400;2023-03-04T08:43:49;102557.31;;;8.69;100.00
47104;BME280;32853;52.164;5.400;2023-03-04T08:46:20;102575.50;;;8.85;100.00
47104;BME280;32853;52.164;5.400;2023-03-04T08:48:58;102566.03;;;8.68;100.00
47104;BME280;32853;52.164;5.400;2023-03-04T08:51:32;102560.00;;;8.56;100.00
47104;BME280;32853;52.164;5.400;2023-03-04T08:54:00;102570.44;;;8.54;100.00
47104;BME280;32853;52.164;5.400;2023-03-04T08:56:33;102560.81;;;8.61;100.00
47104;BME280;32853;52.164;5.400;2023-03-04T08:58:58;102562.50;;;8.72;100.00
47104;BME280;32853;52.164;5.400;2023-03-04T09:01:24;102561.75;;;8.54;100.00
47104;BME280;32853;52.164;5.400;2023-03-04T09:03:49;102551.28;;;8.60;100.00
47104;BME280;32853;52.164;5.400;2023-03-04T09:06:22;102521.75;;;8.49;100.00
47104;BME280;32853;52.164;5.400;2023-03-04T09:08:52;102492.19;;;8.57;100.00
47104;BME280;32853;52.164;5.400;2023-03-04T09:11:27;102550.22;;;8.94;100.00
47104;BME280;32853;52.164;5.400;2023-03-04T09:14:04;102509.63;;;8.40;100.00
47104;BME280;32853;52.164;5.400;2023-03-04T09:16:29;102532.22;;;8.44;100.00
47104;BME280;32853;52.164;5.400;2023-03-04T09:19:05;102559.91;;;8.72;100.00
47104;BME280;32853;52.164;5.400;2023-03-04T09:21:30;102557.34;;;8.66;100.00
47104;BME280;32853;52.164;5.400;2023-03-04T09:23:56;102426.38;;;8.02;100.00
47104;BME280;32853;52.164;5.400;2023-03-04T09:26:26;102421.13;;;8.06;100.00
47104;BME280;32853;52.164;5.400;2023-03-04T09:29:05;102434.16;;;8.11;100.00
47104;BME280;32853;52.164;5.400;2023-03-04T09:31:31;102576.34;;;8.91;100.00
47104;BME280;32853;52.164;5.400;2023-03-04T09:33:57;102571.88;;;9.12;100.00
47104;BME280;32853;52.164;5.400;2023-03-04T09:36:23;102558.69;;;9.33;100.00
47104;BME280;32853;52.164;5.400;2023-03-04T09:38:58;102495.47;;;8.88;100.00
47104;BME280;32853;52.164;5.400;2023-03-04T09:41:27;102551.03;;;9.04;100.00
47104;BME280;32853;52.164;5.400;2023-03-04T09:43:56;102413.19;;;8.38;100.00
47104;BME280;32853;52.164;5.400;2023-03-04T09:46:40;102551.81;;;9.21;100.00
47104;BME280;32853;52.164;5.400;2023-03-04T09:49:10;102501.38;;;9.16;100.00
47104;BME280;32853;52.164;5.400;2023-03-04T09:54:23;102546.97;;;9.80;100.00
47104;BME280;32853;52.164;5.400;2023-03-04T10:02:44;102392.22;;;8.57;100.00
47104;BME280;32853;52.164;5.400;2023-03-04T10:05:16;102530.66;;;9.56;100.00
47104;BME280;32853;52.164;5.400;2023-03-04T10:07:48;102520.00;;;9.75;100.00
47104;BME280;32853;52.164;5.400;2023-03-04T10:10:21;102523.97;;;9.22;100.00
47104;BME280;32853;52.164;5.400;2023-03-04T10:12:49;102503.22;;;9.02;100.00
47104;BME280;32853;52.164;5.400;2023-03-04T10:15:39;102427.81;;;8.62;100.00
47104;BME280;32853;52.164;5.400;2023-03-04T10:18:23;102523.00;;;9.35;100.00
47104;BME280;32853;52.164;5.400;2023-03-04T10:21:00;102517.34;;;9.82;100.00
47104;BME280;32853;52.164;5.400;2023-03-04T10:23:28;102322.59;;;8.68;100.00
47104;BME280;32853;52.164;5.400;2023-03-04T10:25:58;102534.69;;;9.91;100.00
47104;BME280;32853;52.164;5.400;2023-03-04T10:28:29;102457.66;;;9.40;100.00
47104;BME280;32853;52.164;5.400;2023-03-04T10:31:02;102350.59;;;8.41;100.00
47104;BME280;32853;52.164;5.400;2023-03-04T10:33:31;102444.19;;;8.83;100.00
47104;BME280;32853;52.164;5.400;2023-03-04T10:39:18;102508.22;;;9.31;100.00
47104;BME280;32853;52.164;5.400;2023-03-04T10:41:54;102447.34;;;9.26;100.00
47104;BME280;32853;52.164;5.400;2023-03-04T10:44:21;102515.53;;;9.86;100.00
47104;BME280;32853;52.164;5.400;2023-03-04T10:46:48;102502.75;;;9.58;100.00
47104;BME280;32853;52.164;5.400;2023-03-04T10:49:16;102516.72;;;9.53;100.00
47104;BME280;32853;52.164;5.400;2023-03-04T10:51:48;102510.75;;;9.43;100.00
47104;BME280;32853;52.164;5.400;2023-03-04T10:56:54;102516.44;;;9.85;100.00
47104;BME280;32853;52.164;5.400;2023-03-04T11:02:19;102513.00;;;9.80;100.00
47104;BME280;32853;52.164;5.400;2023-03-04T11:07:38;102513.94;;;9.73;100.00
47104;BME280;32853;52.164;5.400;2023-03-04T11:10:18;102519.19;;;9.70;100.00
47104;BME280;32853;52.164;5.400;2023-03-04T11:13:04;102514.06;;;9.60;100.00
47104;BME280;32853;52.164;5.400;2023-03-04T11:15:56;102471.91;;;8.97;100.00
47104;BME280;32853;52.164;5.400;2023-03-04T11:21:01;102515.44;;;8.94;100.00
47104;BME280;32853;52.164;5.400;2023-03-04T11:23:42;102512.84;;;8.92;100.00
47104;BME280;32853;52.164;5.400;2023-03-04T11:26:12;102482.72;;;8.35;100.00
47104;BME280;32853;52.164;5.400;2023-03-04T11:31:41;102516.59;;;8.38;100.00
47104;BME280;32853;52.164;5.400;2023-03-04T11:37:47;102507.06;;;8.35;100.00
47104;BME280;32853;52.164;5.400;2023-03-04T11:40:53;102505.84;;;8.96;100.00
47104;BME280;32853;52.164;5.400;2023-03-04T11:43:29;102493.75;;;8.87;100.00
47104;BME280;32853;52.164;5.400;2023-03-04T11:52:03;102435.72;;;9.57;100.00
47104;BME280;32853;52.164;5.400;2023-03-04T11:58:20;102475.13;;;10.22;100.00
47104;BME280;32853;52.164;5.400;2023-03-04T12:01:07;102481.91;;;9.52;100.00
47104;BME280;32853;52.164;5.400;2023-03-04T12:12:26;102472.53;;;9.30;100.00
47104;BME280;32853;52.164;5.400;2023-03-04T12:15:12;102475.47;;;8.90;100.00
47104;BME280;32853;52.164;5.400;2023-03-04T12:18:55;102479.97;;;8.65;100.00
47104;BME280;32853;52.164;5.400;2023-03-04T12:21:08;102421.06;;;8.23;100.00
47104;BME280;32853;52.164;5.400;2023-03-04T12:27:19;102469.16;;;9.20;100.00
47104;BME280;32853;52.164;5.400;2023-03-04T12:32:41;102436.66;;;9.50;100.00
47104;BME280;32853;52.164;5.400;2023-03-04T12:38:12;102451.78;;;9.15;100.00
47104;BME280;32853;52.164;5.400;2023-03-04T12:41:00;102443.34;;;9.79;100.00
47104;BME280;32853;52.164;5.400;2023-03-04T12:48:54;102432.34;;;9.48;100.00
47104;BME280;32853;52.164;5.400;2023-03-04T12:52:05;102437.06;;;9.95;100.00
47104;BME280;32853;52.164;5.400;2023-03-04T12:54:40;102438.19;;;9.73;100.00
47104;BME280;32853;52.164;5.400;2023-03-04T12:57:17;102436.44;;;9.72;100.00
47104;BME280;32853;52.164;5.400;2023-03-04T13:03:05;102459.63;;;9.13;100.00
47104;BME280;32853;52.164;5.400;2023-03-04T13:10:52;102276.25;;;7.79;100.00
47104;BME280;32853;52.164;5.400;2023-03-04T13:13:39;102220.81;;;7.53;100.00
47104;BME280;32853;52.164;5.400;2023-03-04T13:16:33;102302.31;;;7.76;100.00
47104;BME280;32853;52.164;5.400;2023-03-04T13:24:55;102397.59;;;8.23;100.00
47104;BME280;32853;52.164;5.400;2023-03-04T13:27:43;102437.41;;;8.59;100.00
47104;BME280;32853;52.164;5.400;2023-03-04T13:38:36;102235.66;;;7.31;100.00
47104;BME280;32853;52.164;5.400;2023-03-04T13:43:45;102357.59;;;8.33;100.00
47104;BME280;32853;52.164;5.400;2023-03-04T13:51:35;102414.81;;;8.58;100.00
47104;BME280;32853;52.164;5.400;2023-03-04T13:54:32;102413.63;;;9.01;100.00
47104;BME280;32853;52.164;5.400;2023-03-04T14:02:00;102407.50;;;9.04;100.00
47104;BME280;32853;52.164;5.400;2023-03-04T14:04:40;102381.47;;;8.99;100.00
47104;BME280;32853;52.164;5.400;2023-03-04T14:12:46;102303.72;;;8.35;100.00
47104;BME280;32853;52.164;5.400;2023-03-04T14:17:46;102404.25;;;8.78;100.00
47104;BME280;32853;52.164;5.400;2023-03-04T14:20:40;102390.44;;;8.62;100.00
47104;BME280;32853;52.164;5.400;2023-03-04T14:23:27;102406.25;;;8.37;100.00
47104;BME280;32853;52.164;5.400;2023-03-04T14:26:11;102405.16;;;8.70;100.00
47104;BME280;32853;52.164;5.400;2023-03-04T14:28:48;102407.47;;;9.07;100.00
47104;BME280;32853;52.164;5.400;2023-03-04T14:31:20;102328.19;;;8.10;100.00
47104;BME280;32853;52.164;5.400;2023-03-04T14:33:49;102281.34;;;7.99;100.00
47104;BME280;32853;52.164;5.400;2023-03-04T14:36:19;102397.91;;;9.06;100.00
47104;BME280;32853;52.164;5.400;2023-03-04T14:38:51;102343.69;;;8.36;100.00
47104;BME280;32853;52.164;5.400;2023-03-04T14:41:21;102388.44;;;8.99;100.00
47104;BME280;32853;52.164;5.400;2023-03-04T14:43:55;102377.16;;;8.92;100.00
47104;BME280;32853;52.164;5.400;2023-03-04T14:46:33;102385.22;;;8.65;100.00
47104;BME280;32853;52.164;5.400;2023-03-04T14:49:01;102297.50;;;8.52;100.00
47104;BME280;32853;52.164;5.400;2023-03-04T14:51:38;102378.91;;;8.92;100.00